<?xml version="1.0" encoding="UTF-8" standalone="yes"?>
<gpx version="1.1" creator="MagicMaps Tour Explorer"
     xmlns:xsi="http://www.w3.org/2001/XMLSchema-instance"
     xmlns="http://www.topografix.com/GPX/1/1">
  <trk>
    <name>heini_holzer_ks</name>
    <trkseg>
      <trkpt lat="46.677759038" lon="11.253922563">
        <ele>1936.0</ele>
        <time>2016-08-26T07:10:18</time>
      </trkpt>
      <trkpt lat="46.677767672" lon="11.253938824">
        <ele>1935.3</ele>
        <time>2016-08-26T07:10:33</time>
      </trkpt>
      <trkpt lat="46.677740179" lon="11.253967490">
        <ele>1935.3</ele>
        <time>2016-08-26T07:10:55</time>
      </trkpt>
      <trkpt lat="46.677466510" lon="11.254082154">
        <ele>1934.1</ele>
        <time>2016-08-26T07:11:26</time>
      </trkpt>
      <trkpt lat="46.677331226" lon="11.254225317">
        <ele>1932.9</ele>
        <time>2016-08-26T07:11:40</time>
      </trkpt>
      <trkpt lat="46.677207341" lon="11.254252475">
        <ele>1930.9</ele>
        <time>2016-08-26T07:12:05</time>
      </trkpt>
      <trkpt lat="46.677235924" lon="11.254321625">
        <ele>1930.5</ele>
        <time>2016-08-26T07:12:28</time>
      </trkpt>
      <trkpt lat="46.677111201" lon="11.254662266">
        <ele>1930.4</ele>
        <time>2016-08-26T07:12:47</time>
      </trkpt>
      <trkpt lat="46.677073063" lon="11.254834011">
        <ele>1929.8</ele>
        <time>2016-08-26T07:12:57</time>
      </trkpt>
      <trkpt lat="46.677125702" lon="11.255083205">
        <ele>1929.4</ele>
        <time>2016-08-26T07:13:11</time>
      </trkpt>
      <trkpt lat="46.677163756" lon="11.255197199">
        <ele>1929.8</ele>
        <time>2016-08-26T07:13:17</time>
      </trkpt>
      <trkpt lat="46.677207677" lon="11.255271044">
        <ele>1930.4</ele>
        <time>2016-08-26T07:13:22</time>
      </trkpt>
      <trkpt lat="46.677236930" lon="11.255582934">
        <ele>1930.2</ele>
        <time>2016-08-26T07:13:50</time>
      </trkpt>
      <trkpt lat="46.677587293" lon="11.255878061">
        <ele>1930.3</ele>
        <time>2016-08-26T07:14:22</time>
      </trkpt>
      <trkpt lat="46.677898513" lon="11.256108563">
        <ele>1929.9</ele>
        <time>2016-08-26T07:15:00</time>
      </trkpt>
      <trkpt lat="46.678221552" lon="11.256476948">
        <ele>1930.6</ele>
        <time>2016-08-26T07:15:31</time>
      </trkpt>
      <trkpt lat="46.678424058" lon="11.256645592">
        <ele>1930.8</ele>
        <time>2016-08-26T07:15:49</time>
      </trkpt>
      <trkpt lat="46.678596474" lon="11.256712647">
        <ele>1931.0</ele>
        <time>2016-08-26T07:16:02</time>
      </trkpt>
      <trkpt lat="46.678754725" lon="11.256818846">
        <ele>1931.2</ele>
        <time>2016-08-26T07:16:16</time>
      </trkpt>
      <trkpt lat="46.678978521" lon="11.257026214">
        <ele>1930.9</ele>
        <time>2016-08-26T07:16:35</time>
      </trkpt>
      <trkpt lat="46.679272978" lon="11.257205755">
        <ele>1931.4</ele>
        <time>2016-08-26T07:17:04</time>
      </trkpt>
      <trkpt lat="46.679337099" lon="11.257217238">
        <ele>1930.8</ele>
        <time>2016-08-26T07:17:21</time>
      </trkpt>
      <trkpt lat="46.679352773" lon="11.257272894">
        <ele>1930.6</ele>
        <time>2016-08-26T07:17:38</time>
      </trkpt>
      <trkpt lat="46.679417482" lon="11.257286305">
        <ele>1930.2</ele>
        <time>2016-08-26T07:17:59</time>
      </trkpt>
      <trkpt lat="46.679456122" lon="11.257326873">
        <ele>1930.0</ele>
        <time>2016-08-26T07:18:26</time>
      </trkpt>
      <trkpt lat="46.679444639" lon="11.257425779">
        <ele>1929.5</ele>
        <time>2016-08-26T07:18:48</time>
      </trkpt>
      <trkpt lat="46.679580761" lon="11.257537091">
        <ele>1929.1</ele>
        <time>2016-08-26T07:19:28</time>
      </trkpt>
      <trkpt lat="46.679640776" lon="11.257553687">
        <ele>1928.8</ele>
        <time>2016-08-26T07:19:49</time>
      </trkpt>
      <trkpt lat="46.679728031" lon="11.257629124">
        <ele>1928.3</ele>
        <time>2016-08-26T07:20:26</time>
      </trkpt>
      <trkpt lat="46.679833224" lon="11.257674890">
        <ele>1928.3</ele>
        <time>2016-08-26T07:20:49</time>
      </trkpt>
      <trkpt lat="46.679883096" lon="11.257725013">
        <ele>1928.0</ele>
        <time>2016-08-26T07:21:12</time>
      </trkpt>
      <trkpt lat="46.679987116" lon="11.257703304">
        <ele>1925.2</ele>
        <time>2016-08-26T07:26:14</time>
      </trkpt>
      <trkpt lat="46.680104965" lon="11.257879492">
        <ele>1925.8</ele>
        <time>2016-08-26T07:26:31</time>
      </trkpt>
      <trkpt lat="46.680294313" lon="11.258020559">
        <ele>1926.0</ele>
        <time>2016-08-26T07:26:57</time>
      </trkpt>
      <trkpt lat="46.680463124" lon="11.258289535">
        <ele>1923.3</ele>
        <time>2016-08-26T07:27:27</time>
      </trkpt>
      <trkpt lat="46.680577789" lon="11.258349298">
        <ele>1921.7</ele>
        <time>2016-08-26T07:27:41</time>
      </trkpt>
      <trkpt lat="46.680831425" lon="11.258554235">
        <ele>1916.2</ele>
        <time>2016-08-26T07:28:09</time>
      </trkpt>
      <trkpt lat="46.680941395" lon="11.258746013">
        <ele>1915.8</ele>
        <time>2016-08-26T07:28:23</time>
      </trkpt>
      <trkpt lat="46.680986155" lon="11.258860175">
        <ele>1915.7</ele>
        <time>2016-08-26T07:28:34</time>
      </trkpt>
      <trkpt lat="46.681079026" lon="11.258951034">
        <ele>1915.4</ele>
        <time>2016-08-26T07:28:45</time>
      </trkpt>
      <trkpt lat="46.681162845" lon="11.258940138">
        <ele>1914.8</ele>
        <time>2016-08-26T07:28:50</time>
      </trkpt>
      <trkpt lat="46.681259908" lon="11.258997722">
        <ele>1915.1</ele>
        <time>2016-08-26T07:28:59</time>
      </trkpt>
      <trkpt lat="46.681435844" lon="11.259244820">
        <ele>1915.2</ele>
        <time>2016-08-26T07:29:17</time>
      </trkpt>
      <trkpt lat="46.681511784" lon="11.259315815">
        <ele>1912.1</ele>
        <time>2016-08-26T07:29:29</time>
      </trkpt>
      <trkpt lat="46.681557801" lon="11.259328388">
        <ele>1909.9</ele>
        <time>2016-08-26T07:29:38</time>
      </trkpt>
      <trkpt lat="46.681642709" lon="11.259479430">
        <ele>1905.4</ele>
        <time>2016-08-26T07:29:55</time>
      </trkpt>
      <trkpt lat="46.681708088" lon="11.259637261">
        <ele>1904.5</ele>
        <time>2016-08-26T07:30:05</time>
      </trkpt>
      <trkpt lat="46.681811437" lon="11.259729378">
        <ele>1904.4</ele>
        <time>2016-08-26T07:30:14</time>
      </trkpt>
      <trkpt lat="46.681977063" lon="11.259931130">
        <ele>1904.1</ele>
        <time>2016-08-26T07:30:35</time>
      </trkpt>
      <trkpt lat="46.682113186" lon="11.259997683">
        <ele>1902.1</ele>
        <time>2016-08-26T07:30:48</time>
      </trkpt>
      <trkpt lat="46.682236819" lon="11.260134056">
        <ele>1901.2</ele>
        <time>2016-08-26T07:31:00</time>
      </trkpt>
      <trkpt lat="46.682294570" lon="11.260335306">
        <ele>1901.2</ele>
        <time>2016-08-26T07:31:18</time>
      </trkpt>
      <trkpt lat="46.682348717" lon="11.260391548">
        <ele>1900.2</ele>
        <time>2016-08-26T07:31:36</time>
      </trkpt>
      <trkpt lat="46.682353243" lon="11.260437481">
        <ele>1899.3</ele>
        <time>2016-08-26T07:32:07</time>
      </trkpt>
      <trkpt lat="46.682501435" lon="11.260485006">
        <ele>1896.0</ele>
        <time>2016-08-26T07:32:22</time>
      </trkpt>
      <trkpt lat="46.682574777" lon="11.260532113">
        <ele>1893.7</ele>
        <time>2016-08-26T07:32:30</time>
      </trkpt>
      <trkpt lat="46.682640743" lon="11.260612579">
        <ele>1890.3</ele>
        <time>2016-08-26T07:32:42</time>
      </trkpt>
      <trkpt lat="46.682661194" lon="11.260670163">
        <ele>1887.3</ele>
        <time>2016-08-26T07:32:56</time>
      </trkpt>
      <trkpt lat="46.682676785" lon="11.260676533">
        <ele>1886.6</ele>
        <time>2016-08-26T07:33:03</time>
      </trkpt>
      <trkpt lat="46.682708468" lon="11.260832604">
        <ele>1886.8</ele>
        <time>2016-08-26T07:33:16</time>
      </trkpt>
      <trkpt lat="46.682959255" lon="11.260919273">
        <ele>1886.0</ele>
        <time>2016-08-26T07:33:33</time>
      </trkpt>
      <trkpt lat="46.683136784" lon="11.260880297">
        <ele>1888.8</ele>
        <time>2016-08-26T07:33:56</time>
      </trkpt>
      <trkpt lat="46.683401065" lon="11.261055982">
        <ele>1889.6</ele>
        <time>2016-08-26T07:34:22</time>
      </trkpt>
      <trkpt lat="46.683576331" lon="11.261211131">
        <ele>1889.1</ele>
        <time>2016-08-26T07:34:39</time>
      </trkpt>
      <trkpt lat="46.683642715" lon="11.261312887">
        <ele>1888.0</ele>
        <time>2016-08-26T07:34:49</time>
      </trkpt>
      <trkpt lat="46.683829548" lon="11.261354964">
        <ele>1885.7</ele>
        <time>2016-08-26T07:35:06</time>
      </trkpt>
      <trkpt lat="46.683915798" lon="11.261441801">
        <ele>1884.4</ele>
        <time>2016-08-26T07:35:15</time>
      </trkpt>
      <trkpt lat="46.684086369" lon="11.261445573">
        <ele>1882.9</ele>
        <time>2016-08-26T07:35:29</time>
      </trkpt>
      <trkpt lat="46.684265658" lon="11.261517908">
        <ele>1881.4</ele>
        <time>2016-08-26T07:35:44</time>
      </trkpt>
      <trkpt lat="46.684325924" lon="11.261562416">
        <ele>1881.7</ele>
        <time>2016-08-26T07:35:50</time>
      </trkpt>
      <trkpt lat="46.684452742" lon="11.261323197">
        <ele>1878.8</ele>
        <time>2016-08-26T07:36:16</time>
      </trkpt>
      <trkpt lat="46.684559947" lon="11.261288915">
        <ele>1880.5</ele>
        <time>2016-08-26T07:36:35</time>
      </trkpt>
      <trkpt lat="46.684647789" lon="11.261433754">
        <ele>1886.9</ele>
        <time>2016-08-26T07:37:13</time>
      </trkpt>
      <trkpt lat="46.684865635" lon="11.261268631">
        <ele>1888.4</ele>
        <time>2016-08-26T07:37:42</time>
      </trkpt>
      <trkpt lat="46.685137879" lon="11.260979287">
        <ele>1892.3</ele>
        <time>2016-08-26T07:38:20</time>
      </trkpt>
      <trkpt lat="46.685358156" lon="11.260855319">
        <ele>1893.5</ele>
        <time>2016-08-26T07:38:41</time>
      </trkpt>
      <trkpt lat="46.685535600" lon="11.260690447">
        <ele>1894.1</ele>
        <time>2016-08-26T07:38:57</time>
      </trkpt>
      <trkpt lat="46.685577175" lon="11.260543009">
        <ele>1894.9</ele>
        <time>2016-08-26T07:39:13</time>
      </trkpt>
      <trkpt lat="46.685660155" lon="11.260350980">
        <ele>1894.3</ele>
        <time>2016-08-26T07:39:31</time>
      </trkpt>
      <trkpt lat="46.685724109" lon="11.260306304">
        <ele>1897.2</ele>
        <time>2016-08-26T07:39:46</time>
      </trkpt>
      <trkpt lat="46.685751937" lon="11.260246038">
        <ele>1897.5</ele>
        <time>2016-08-26T07:39:51</time>
      </trkpt>
      <trkpt lat="46.686067432" lon="11.259823088">
        <ele>1906.8</ele>
        <time>2016-08-26T07:40:55</time>
      </trkpt>
      <trkpt lat="46.686121160" lon="11.259675315">
        <ele>1908.2</ele>
        <time>2016-08-26T07:41:08</time>
      </trkpt>
      <trkpt lat="46.686149659" lon="11.259543216">
        <ele>1909.6</ele>
        <time>2016-08-26T07:41:20</time>
      </trkpt>
      <trkpt lat="46.686307825" lon="11.259311037">
        <ele>1914.8</ele>
        <time>2016-08-26T07:41:54</time>
      </trkpt>
      <trkpt lat="46.686339928" lon="11.259314977">
        <ele>1917.9</ele>
        <time>2016-08-26T07:42:06</time>
      </trkpt>
      <trkpt lat="46.686392147" lon="11.259226464">
        <ele>1922.9</ele>
        <time>2016-08-26T07:42:37</time>
      </trkpt>
      <trkpt lat="46.686427519" lon="11.259254627">
        <ele>1925.5</ele>
        <time>2016-08-26T07:42:52</time>
      </trkpt>
      <trkpt lat="46.686478062" lon="11.259097466">
        <ele>1927.2</ele>
        <time>2016-08-26T07:43:08</time>
      </trkpt>
      <trkpt lat="46.686499687" lon="11.258897139">
        <ele>1932.3</ele>
        <time>2016-08-26T07:43:43</time>
      </trkpt>
      <trkpt lat="46.686527096" lon="11.258922620">
        <ele>1935.4</ele>
        <time>2016-08-26T07:43:58</time>
      </trkpt>
      <trkpt lat="46.686549559" lon="11.258918261">
        <ele>1937.9</ele>
        <time>2016-08-26T07:44:16</time>
      </trkpt>
      <trkpt lat="46.686547967" lon="11.258886913">
        <ele>1938.1</ele>
        <time>2016-08-26T07:44:42</time>
      </trkpt>
      <trkpt lat="46.686568083" lon="11.258874508">
        <ele>1937.9</ele>
        <time>2016-08-26T07:45:13</time>
      </trkpt>
      <trkpt lat="46.686559869" lon="11.258812314">
        <ele>1938.7</ele>
        <time>2016-08-26T07:45:32</time>
      </trkpt>
      <trkpt lat="46.686644359" lon="11.258647023">
        <ele>1941.6</ele>
        <time>2016-08-26T07:46:12</time>
      </trkpt>
      <trkpt lat="46.686661374" lon="11.258505369">
        <ele>1942.7</ele>
        <time>2016-08-26T07:46:30</time>
      </trkpt>
      <trkpt lat="46.686697667" lon="11.258477708">
        <ele>1942.7</ele>
        <time>2016-08-26T07:46:53</time>
      </trkpt>
      <trkpt lat="46.686769333" lon="11.258326415">
        <ele>1940.7</ele>
        <time>2016-08-26T07:47:04</time>
      </trkpt>
      <trkpt lat="46.686890619" lon="11.258121813">
        <ele>1944.2</ele>
        <time>2016-08-26T07:47:34</time>
      </trkpt>
      <trkpt lat="46.686903108" lon="11.257980829">
        <ele>1945.8</ele>
        <time>2016-08-26T07:47:50</time>
      </trkpt>
      <trkpt lat="46.686883327" lon="11.257875217">
        <ele>1945.3</ele>
        <time>2016-08-26T07:48:01</time>
      </trkpt>
      <trkpt lat="46.686910400" lon="11.257719649">
        <ele>1948.7</ele>
        <time>2016-08-26T07:48:19</time>
      </trkpt>
      <trkpt lat="46.686860695" lon="11.257606745">
        <ele>1950.5</ele>
        <time>2016-08-26T07:48:34</time>
      </trkpt>
      <trkpt lat="46.686855918" lon="11.257531140">
        <ele>1952.5</ele>
        <time>2016-08-26T07:48:46</time>
      </trkpt>
      <trkpt lat="46.686932193" lon="11.257500378">
        <ele>1955.9</ele>
        <time>2016-08-26T07:49:25</time>
      </trkpt>
      <trkpt lat="46.686967732" lon="11.257379511">
        <ele>1954.5</ele>
        <time>2016-08-26T07:49:46</time>
      </trkpt>
      <trkpt lat="46.686994554" lon="11.257367358">
        <ele>1954.0</ele>
        <time>2016-08-26T07:49:49</time>
      </trkpt>
      <trkpt lat="46.687026741" lon="11.257084301">
        <ele>1953.4</ele>
        <time>2016-08-26T07:50:10</time>
      </trkpt>
      <trkpt lat="46.687054150" lon="11.257021436">
        <ele>1951.4</ele>
        <time>2016-08-26T07:50:29</time>
      </trkpt>
      <trkpt lat="46.687135873" lon="11.256937617">
        <ele>1952.8</ele>
        <time>2016-08-26T07:50:47</time>
      </trkpt>
      <trkpt lat="46.687176609" lon="11.256843656">
        <ele>1955.4</ele>
        <time>2016-08-26T07:51:00</time>
      </trkpt>
      <trkpt lat="46.687128497" lon="11.256647604">
        <ele>1953.7</ele>
        <time>2016-08-26T07:51:15</time>
      </trkpt>
      <trkpt lat="46.687045684" lon="11.256481810">
        <ele>1951.5</ele>
        <time>2016-08-26T07:51:31</time>
      </trkpt>
      <trkpt lat="46.686890954" lon="11.256363792">
        <ele>1949.6</ele>
        <time>2016-08-26T07:51:52</time>
      </trkpt>
      <trkpt lat="46.686819205" lon="11.256216355">
        <ele>1946.6</ele>
        <time>2016-08-26T07:52:19</time>
      </trkpt>
      <trkpt lat="46.686863629" lon="11.256141001">
        <ele>1950.2</ele>
        <time>2016-08-26T07:52:34</time>
      </trkpt>
      <trkpt lat="46.686902521" lon="11.256112419">
        <ele>1951.8</ele>
        <time>2016-08-26T07:52:56</time>
      </trkpt>
      <trkpt lat="46.686933199" lon="11.256163046">
        <ele>1955.0</ele>
        <time>2016-08-26T07:53:12</time>
      </trkpt>
      <trkpt lat="46.686974019" lon="11.256147036">
        <ele>1958.1</ele>
        <time>2016-08-26T07:53:27</time>
      </trkpt>
      <trkpt lat="46.687018108" lon="11.256172098">
        <ele>1960.9</ele>
        <time>2016-08-26T07:53:42</time>
      </trkpt>
      <trkpt lat="46.687054737" lon="11.256277459">
        <ele>1963.7</ele>
        <time>2016-08-26T07:53:59</time>
      </trkpt>
      <trkpt lat="46.687359586" lon="11.256337138">
        <ele>1967.4</ele>
        <time>2016-08-26T07:55:01</time>
      </trkpt>
      <trkpt lat="46.687666783" lon="11.255823160">
        <ele>2042.9</ele>
        <time>2016-08-26T08:17:53</time>
      </trkpt>
      <trkpt lat="46.687737191" lon="11.255811173">
        <ele>2043.9</ele>
        <time>2016-08-26T08:18:11</time>
      </trkpt>
      <trkpt lat="46.687773820" lon="11.255778987">
        <ele>2045.8</ele>
        <time>2016-08-26T08:18:27</time>
      </trkpt>
      <trkpt lat="46.687718248" lon="11.255739760">
        <ele>2048.4</ele>
        <time>2016-08-26T08:18:49</time>
      </trkpt>
      <trkpt lat="46.687745824" lon="11.255677901">
        <ele>2049.7</ele>
        <time>2016-08-26T08:20:27</time>
      </trkpt>
      <trkpt lat="46.687846910" lon="11.255673962">
        <ele>2057.2</ele>
        <time>2016-08-26T08:21:15</time>
      </trkpt>
      <trkpt lat="46.687895190" lon="11.255698605">
        <ele>2059.3</ele>
        <time>2016-08-26T08:21:36</time>
      </trkpt>
      <trkpt lat="46.687974315" lon="11.255669771">
        <ele>2060.0</ele>
        <time>2016-08-26T08:22:01</time>
      </trkpt>
      <trkpt lat="46.687963335" lon="11.255631130">
        <ele>2063.0</ele>
        <time>2016-08-26T08:22:22</time>
      </trkpt>
      <trkpt lat="46.687993761" lon="11.255583605">
        <ele>2065.0</ele>
        <time>2016-08-26T08:22:36</time>
      </trkpt>
      <trkpt lat="46.687967693" lon="11.255604811">
        <ele>2069.2</ele>
        <time>2016-08-26T08:23:54</time>
      </trkpt>
      <trkpt lat="46.688023936" lon="11.255525602">
        <ele>2076.8</ele>
        <time>2016-08-26T08:26:12</time>
      </trkpt>
      <trkpt lat="46.688080179" lon="11.255379170">
        <ele>2090.4</ele>
        <time>2016-08-26T08:32:44</time>
      </trkpt>
      <trkpt lat="46.688105911" lon="11.255393503">
        <ele>2112.4</ele>
        <time>2016-08-26T08:40:57</time>
      </trkpt>
      <trkpt lat="46.688077915" lon="11.255475730">
        <ele>2115.2</ele>
        <time>2016-08-26T08:43:06</time>
      </trkpt>
      <trkpt lat="46.688154610" lon="11.255497355">
        <ele>2121.8</ele>
        <time>2016-08-26T08:44:09</time>
      </trkpt>
      <trkpt lat="46.688172631" lon="11.255550999">
        <ele>2124.5</ele>
        <time>2016-08-26T08:44:31</time>
      </trkpt>
      <trkpt lat="46.688213283" lon="11.255563907">
        <ele>2130.9</ele>
        <time>2016-08-26T08:45:32</time>
      </trkpt>
      <trkpt lat="46.688259887" lon="11.255634399">
        <ele>2136.4</ele>
        <time>2016-08-26T08:46:04</time>
      </trkpt>
      <trkpt lat="46.688247817" lon="11.255690390">
        <ele>2141.0</ele>
        <time>2016-08-26T08:46:53</time>
      </trkpt>
      <trkpt lat="46.688276734" lon="11.255718637">
        <ele>2143.7</ele>
        <time>2016-08-26T08:47:13</time>
      </trkpt>
      <trkpt lat="46.688285200" lon="11.255787537">
        <ele>2148.0</ele>
        <time>2016-08-26T08:47:34</time>
      </trkpt>
      <trkpt lat="46.688385783" lon="11.255799020">
        <ele>2151.6</ele>
        <time>2016-08-26T08:48:20</time>
      </trkpt>
      <trkpt lat="46.688410845" lon="11.255770773">
        <ele>2154.9</ele>
        <time>2016-08-26T08:48:46</time>
      </trkpt>
      <trkpt lat="46.688398356" lon="11.255774796">
        <ele>2156.6</ele>
        <time>2016-08-26T08:49:07</time>
      </trkpt>
      <trkpt lat="46.688460130" lon="11.255922988">
        <ele>2172.6</ele>
        <time>2016-08-26T08:51:25</time>
      </trkpt>
      <trkpt lat="46.688414197" lon="11.255999431">
        <ele>2179.7</ele>
        <time>2016-08-26T08:52:59</time>
      </trkpt>
      <trkpt lat="46.688433308" lon="11.256007310">
        <ele>2180.3</ele>
        <time>2016-08-26T08:53:25</time>
      </trkpt>
      <trkpt lat="46.688428279" lon="11.256046034">
        <ele>2181.8</ele>
        <time>2016-08-26T08:53:45</time>
      </trkpt>
      <trkpt lat="46.688448228" lon="11.256061206">
        <ele>2182.0</ele>
        <time>2016-08-26T08:54:18</time>
      </trkpt>
      <trkpt lat="46.688463064" lon="11.256204369">
        <ele>2187.0</ele>
        <time>2016-08-26T08:55:53</time>
      </trkpt>
      <trkpt lat="46.688501202" lon="11.256209062">
        <ele>2193.3</ele>
        <time>2016-08-26T08:58:53</time>
      </trkpt>
      <trkpt lat="46.688514194" lon="11.256254995">
        <ele>2195.5</ele>
        <time>2016-08-26T08:59:13</time>
      </trkpt>
      <trkpt lat="46.688554510" lon="11.256300844">
        <ele>2196.6</ele>
        <time>2016-08-26T08:59:27</time>
      </trkpt>
      <trkpt lat="46.688596336" lon="11.256326828">
        <ele>2200.7</ele>
        <time>2016-08-26T09:01:00</time>
      </trkpt>
      <trkpt lat="46.688614357" lon="11.256304700">
        <ele>2203.4</ele>
        <time>2016-08-26T09:01:18</time>
      </trkpt>
      <trkpt lat="46.688664900" lon="11.256384328">
        <ele>2207.9</ele>
        <time>2016-08-26T09:01:56</time>
      </trkpt>
      <trkpt lat="46.688699769" lon="11.256409306">
        <ele>2211.6</ele>
        <time>2016-08-26T09:02:19</time>
      </trkpt>
      <trkpt lat="46.688786102" lon="11.256345687">
        <ele>2215.8</ele>
        <time>2016-08-26T09:03:02</time>
      </trkpt>
      <trkpt lat="46.688783923" lon="11.256371420">
        <ele>2220.8</ele>
        <time>2016-08-26T09:03:42</time>
      </trkpt>
      <trkpt lat="46.688826084" lon="11.256392123">
        <ele>2224.9</ele>
        <time>2016-08-26T09:04:25</time>
      </trkpt>
      <trkpt lat="46.688838070" lon="11.256420538">
        <ele>2227.1</ele>
        <time>2016-08-26T09:04:50</time>
      </trkpt>
      <trkpt lat="46.688900096" lon="11.256346693">
        <ele>2231.8</ele>
        <time>2016-08-26T09:05:26</time>
      </trkpt>
      <trkpt lat="46.688982490" lon="11.256316686">
        <ele>2237.0</ele>
        <time>2016-08-26T09:06:00</time>
      </trkpt>
      <trkpt lat="46.689018700" lon="11.256351722">
        <ele>2245.4</ele>
        <time>2016-08-26T09:11:16</time>
      </trkpt>
      <trkpt lat="46.689026412" lon="11.256404445">
        <ele>2249.7</ele>
        <time>2016-08-26T09:11:54</time>
      </trkpt>
      <trkpt lat="46.689112997" lon="11.256482061">
        <ele>2257.8</ele>
        <time>2016-08-26T09:12:50</time>
      </trkpt>
      <trkpt lat="46.689115679" lon="11.256524054">
        <ele>2260.6</ele>
        <time>2016-08-26T09:13:13</time>
      </trkpt>
      <trkpt lat="46.689091371" lon="11.256564455">
        <ele>2262.8</ele>
        <time>2016-08-26T09:13:32</time>
      </trkpt>
      <trkpt lat="46.689110650" lon="11.256611310">
        <ele>2265.9</ele>
        <time>2016-08-26T09:13:51</time>
      </trkpt>
      <trkpt lat="46.689190194" lon="11.256667050">
        <ele>2271.2</ele>
        <time>2016-08-26T09:14:32</time>
      </trkpt>
      <trkpt lat="46.689257585" lon="11.256672833">
        <ele>2276.3</ele>
        <time>2016-08-26T09:15:10</time>
      </trkpt>
      <trkpt lat="46.689313659" lon="11.256725807">
        <ele>2280.9</ele>
        <time>2016-08-26T09:15:45</time>
      </trkpt>
      <trkpt lat="46.689352049" lon="11.256835610">
        <ele>2293.5</ele>
        <time>2016-08-26T09:18:25</time>
      </trkpt>
      <trkpt lat="46.689485740" lon="11.256929990">
        <ele>2304.3</ele>
        <time>2016-08-26T09:19:51</time>
      </trkpt>
      <trkpt lat="46.689435616" lon="11.257070722">
        <ele>2312.4</ele>
        <time>2016-08-26T09:21:01</time>
      </trkpt>
      <trkpt lat="46.689363196" lon="11.257095113">
        <ele>2317.0</ele>
        <time>2016-08-26T09:21:33</time>
      </trkpt>
      <trkpt lat="46.689378032" lon="11.257122606">
        <ele>2320.0</ele>
        <time>2016-08-26T09:22:00</time>
      </trkpt>
      <trkpt lat="46.689350707" lon="11.257124366">
        <ele>2322.7</ele>
        <time>2016-08-26T09:22:20</time>
      </trkpt>
      <trkpt lat="46.689319275" lon="11.257159654">
        <ele>2325.4</ele>
        <time>2016-08-26T09:22:37</time>
      </trkpt>
      <trkpt lat="46.689391695" lon="11.257296866">
        <ele>2329.9</ele>
        <time>2016-08-26T09:23:26</time>
      </trkpt>
      <trkpt lat="46.689358503" lon="11.257306170">
        <ele>2340.2</ele>
        <time>2016-08-26T09:26:02</time>
      </trkpt>
      <trkpt lat="46.689365124" lon="11.257339111">
        <ele>2342.3</ele>
        <time>2016-08-26T09:28:14</time>
      </trkpt>
      <trkpt lat="46.689412063" lon="11.257357970">
        <ele>2343.9</ele>
        <time>2016-08-26T09:28:37</time>
      </trkpt>
      <trkpt lat="46.689440897" lon="11.257400969">
        <ele>2347.0</ele>
        <time>2016-08-26T09:29:00</time>
      </trkpt>
      <trkpt lat="46.689456655" lon="11.257478334">
        <ele>2363.2</ele>
        <time>2016-08-26T09:31:28</time>
      </trkpt>
      <trkpt lat="46.689498732" lon="11.257487470">
        <ele>2364.9</ele>
        <time>2016-08-26T09:31:52</time>
      </trkpt>
      <trkpt lat="46.689480962" lon="11.257485710">
        <ele>2368.1</ele>
        <time>2016-08-26T09:32:10</time>
      </trkpt>
      <trkpt lat="46.689499319" lon="11.257488476">
        <ele>2367.9</ele>
        <time>2016-08-26T09:32:20</time>
      </trkpt>
      <trkpt lat="46.689516082" lon="11.257532900">
        <ele>2373.2</ele>
        <time>2016-08-26T09:33:28</time>
      </trkpt>
      <trkpt lat="46.689662263" lon="11.257581431">
        <ele>2378.9</ele>
        <time>2016-08-26T09:34:14</time>
      </trkpt>
      <trkpt lat="46.689627562" lon="11.257600207">
        <ele>2380.6</ele>
        <time>2016-08-26T09:35:01</time>
      </trkpt>
      <trkpt lat="46.689628065" lon="11.257648570">
        <ele>2383.7</ele>
        <time>2016-08-26T09:35:18</time>
      </trkpt>
      <trkpt lat="46.689670729" lon="11.257643290">
        <ele>2386.5</ele>
        <time>2016-08-26T09:35:37</time>
      </trkpt>
      <trkpt lat="46.689721439" lon="11.257712860">
        <ele>2393.0</ele>
        <time>2016-08-26T09:37:16</time>
      </trkpt>
      <trkpt lat="46.689773826" lon="11.257715626">
        <ele>2405.6</ele>
        <time>2016-08-26T09:40:45</time>
      </trkpt>
      <trkpt lat="46.689789416" lon="11.257753093">
        <ele>2406.9</ele>
        <time>2016-08-26T09:41:06</time>
      </trkpt>
      <trkpt lat="46.689768042" lon="11.257881755">
        <ele>2413.0</ele>
        <time>2016-08-26T09:41:42</time>
      </trkpt>
      <trkpt lat="46.689908607" lon="11.258015949">
        <ele>2421.7</ele>
        <time>2016-08-26T09:42:52</time>
      </trkpt>
      <trkpt lat="46.689888993" lon="11.258081412">
        <ele>2426.9</ele>
        <time>2016-08-26T09:43:38</time>
      </trkpt>
      <trkpt lat="46.689893939" lon="11.258144863">
        <ele>2428.5</ele>
        <time>2016-08-26T09:43:58</time>
      </trkpt>
      <trkpt lat="46.689963425" lon="11.258208062">
        <ele>2435.5</ele>
        <time>2016-08-26T09:45:33</time>
      </trkpt>
      <trkpt lat="46.689992091" lon="11.258286266">
        <ele>2438.1</ele>
        <time>2016-08-26T09:45:57</time>
      </trkpt>
      <trkpt lat="46.690038107" lon="11.258315183">
        <ele>2441.0</ele>
        <time>2016-08-26T09:46:40</time>
      </trkpt>
      <trkpt lat="46.690043388" lon="11.258349549">
        <ele>2444.1</ele>
        <time>2016-08-26T09:47:06</time>
      </trkpt>
      <trkpt lat="46.690032575" lon="11.258359356">
        <ele>2445.9</ele>
        <time>2016-08-26T09:47:24</time>
      </trkpt>
      <trkpt lat="46.690079095" lon="11.258315854">
        <ele>2448.4</ele>
        <time>2016-08-26T09:47:45</time>
      </trkpt>
      <trkpt lat="46.690108767" lon="11.258329181">
        <ele>2449.7</ele>
        <time>2016-08-26T09:48:01</time>
      </trkpt>
      <trkpt lat="46.690143300" lon="11.258416856">
        <ele>2454.5</ele>
        <time>2016-08-26T09:48:44</time>
      </trkpt>
      <trkpt lat="46.690137265" lon="11.258467650">
        <ele>2456.0</ele>
        <time>2016-08-26T09:48:55</time>
      </trkpt>
      <trkpt lat="46.690169200" lon="11.258456167">
        <ele>2457.7</ele>
        <time>2016-08-26T09:49:12</time>
      </trkpt>
      <trkpt lat="46.690516882" lon="11.258506458">
        <ele>2473.0</ele>
        <time>2016-08-26T09:52:17</time>
      </trkpt>
      <trkpt lat="46.690504393" lon="11.258489778">
        <ele>2473.8</ele>
        <time>2016-08-26T09:54:10</time>
      </trkpt>
      <trkpt lat="46.690481594" lon="11.258499501">
        <ele>2473.4</ele>
        <time>2016-08-26T09:54:32</time>
      </trkpt>
      <trkpt lat="46.690641437" lon="11.258528419">
        <ele>2476.4</ele>
        <time>2016-08-26T09:55:00</time>
      </trkpt>
      <trkpt lat="46.690773116" lon="11.258447533">
        <ele>2481.2</ele>
        <time>2016-08-26T09:55:24</time>
      </trkpt>
      <trkpt lat="46.690837238" lon="11.258474356">
        <ele>2482.6</ele>
        <time>2016-08-26T09:55:31</time>
      </trkpt>
      <trkpt lat="46.691010995" lon="11.258483073">
        <ele>2483.6</ele>
        <time>2016-08-26T09:55:48</time>
      </trkpt>
      <trkpt lat="46.691169664" lon="11.258458262">
        <ele>2486.3</ele>
        <time>2016-08-26T09:56:11</time>
      </trkpt>
      <trkpt lat="46.691238061" lon="11.258418113">
        <ele>2487.8</ele>
        <time>2016-08-26T09:56:22</time>
      </trkpt>
      <trkpt lat="46.691331100" lon="11.258401852">
        <ele>2489.0</ele>
        <time>2016-08-26T09:56:32</time>
      </trkpt>
      <trkpt lat="46.691725133" lon="11.258414341">
        <ele>2496.7</ele>
        <time>2016-08-26T09:58:31</time>
      </trkpt>
      <trkpt lat="46.691974914" lon="11.258366397">
        <ele>2505.5</ele>
        <time>2016-08-26T09:59:22</time>
      </trkpt>
      <trkpt lat="46.692043981" lon="11.258400260">
        <ele>2506.3</ele>
        <time>2016-08-26T09:59:46</time>
      </trkpt>
      <trkpt lat="46.692016320" lon="11.258336306">
        <ele>2506.0</ele>
        <time>2016-08-26T10:00:30</time>
      </trkpt>
      <trkpt lat="46.692026379" lon="11.258203788">
        <ele>2504.0</ele>
        <time>2016-08-26T10:00:43</time>
      </trkpt>
      <trkpt lat="46.692058062" lon="11.258122819">
        <ele>2503.4</ele>
        <time>2016-08-26T10:01:04</time>
      </trkpt>
      <trkpt lat="46.692018751" lon="11.257956857">
        <ele>2504.4</ele>
        <time>2016-08-26T10:01:33</time>
      </trkpt>
      <trkpt lat="46.692060158" lon="11.257894998">
        <ele>2505.6</ele>
        <time>2016-08-26T10:01:53</time>
      </trkpt>
      <trkpt lat="46.692073904" lon="11.257669358">
        <ele>2513.8</ele>
        <time>2016-08-26T10:02:38</time>
      </trkpt>
      <trkpt lat="46.692050099" lon="11.257450338">
        <ele>2520.2</ele>
        <time>2016-08-26T10:03:20</time>
      </trkpt>
      <trkpt lat="46.692085303" lon="11.257399376">
        <ele>2521.9</ele>
        <time>2016-08-26T10:03:37</time>
      </trkpt>
      <trkpt lat="46.692098463" lon="11.257136436">
        <ele>2522.1</ele>
        <time>2016-08-26T10:05:18</time>
      </trkpt>
      <trkpt lat="46.692177337" lon="11.257077176">
        <ele>2523.1</ele>
        <time>2016-08-26T10:06:23</time>
      </trkpt>
      <trkpt lat="46.692163004" lon="11.257061334">
        <ele>2526.4</ele>
        <time>2016-08-26T10:06:33</time>
      </trkpt>
      <trkpt lat="46.692196112" lon="11.257078098">
        <ele>2529.0</ele>
        <time>2016-08-26T10:07:00</time>
      </trkpt>
      <trkpt lat="46.692215055" lon="11.257034177">
        <ele>2531.0</ele>
        <time>2016-08-26T10:07:21</time>
      </trkpt>
      <trkpt lat="46.692173062" lon="11.256905096">
        <ele>2535.4</ele>
        <time>2016-08-26T10:07:55</time>
      </trkpt>
      <trkpt lat="46.692289235" lon="11.256955890">
        <ele>2548.2</ele>
        <time>2016-08-26T10:09:57</time>
      </trkpt>
      <trkpt lat="46.692232573" lon="11.256983131">
        <ele>2614.6</ele>
        <time>2016-08-26T10:35:28</time>
      </trkpt>
      <trkpt lat="46.692107515" lon="11.256951196">
        <ele>2599.3</ele>
        <time>2016-08-26T10:37:24</time>
      </trkpt>
      <trkpt lat="46.692094104" lon="11.256962931">
        <ele>2596.8</ele>
        <time>2016-08-26T10:37:46</time>
      </trkpt>
      <trkpt lat="46.692114389" lon="11.257051025">
        <ele>2594.5</ele>
        <time>2016-08-26T10:38:06</time>
      </trkpt>
      <trkpt lat="46.692030486" lon="11.257166108">
        <ele>2583.6</ele>
        <time>2016-08-26T10:39:48</time>
      </trkpt>
      <trkpt lat="46.692062253" lon="11.257427875">
        <ele>2578.1</ele>
        <time>2016-08-26T10:40:38</time>
      </trkpt>
      <trkpt lat="46.692095865" lon="11.257436592">
        <ele>2578.0</ele>
        <time>2016-08-26T10:40:55</time>
      </trkpt>
      <trkpt lat="46.692151101" lon="11.257544803">
        <ele>2577.3</ele>
        <time>2016-08-26T10:41:47</time>
      </trkpt>
      <trkpt lat="46.692135846" lon="11.257647062">
        <ele>2574.4</ele>
        <time>2016-08-26T10:42:10</time>
      </trkpt>
      <trkpt lat="46.692188065" lon="11.257746136">
        <ele>2570.8</ele>
        <time>2016-08-26T10:42:27</time>
      </trkpt>
      <trkpt lat="46.692138277" lon="11.257832972">
        <ele>2567.6</ele>
        <time>2016-08-26T10:42:45</time>
      </trkpt>
      <trkpt lat="46.692124112" lon="11.257912852">
        <ele>2564.5</ele>
        <time>2016-08-26T10:42:57</time>
      </trkpt>
      <trkpt lat="46.692150095" lon="11.258109910">
        <ele>2559.0</ele>
        <time>2016-08-26T10:43:27</time>
      </trkpt>
      <trkpt lat="46.692138948" lon="11.258210493">
        <ele>2558.5</ele>
        <time>2016-08-26T10:43:47</time>
      </trkpt>
      <trkpt lat="46.692078849" lon="11.258315183">
        <ele>2559.2</ele>
        <time>2016-08-26T10:44:03</time>
      </trkpt>
      <trkpt lat="46.692062672" lon="11.258315016">
        <ele>2559.3</ele>
        <time>2016-08-26T10:44:04</time>
      </trkpt>
      <trkpt lat="46.692024032" lon="11.258410485">
        <ele>2560.4</ele>
        <time>2016-08-26T10:44:21</time>
      </trkpt>
      <trkpt lat="46.691904254" lon="11.258446109">
        <ele>2558.7</ele>
        <time>2016-08-26T10:44:50</time>
      </trkpt>
      <trkpt lat="46.691959407" lon="11.258545518">
        <ele>2556.0</ele>
        <time>2016-08-26T10:45:05</time>
      </trkpt>
      <trkpt lat="46.692017745" lon="11.258594301">
        <ele>2553.0</ele>
        <time>2016-08-26T10:45:20</time>
      </trkpt>
      <trkpt lat="46.691987487" lon="11.258650795">
        <ele>2550.2</ele>
        <time>2016-08-26T10:45:35</time>
      </trkpt>
      <trkpt lat="46.691924874" lon="11.258654231">
        <ele>2547.2</ele>
        <time>2016-08-26T10:45:51</time>
      </trkpt>
      <trkpt lat="46.691945074" lon="11.258733943">
        <ele>2544.9</ele>
        <time>2016-08-26T10:46:04</time>
      </trkpt>
      <trkpt lat="46.691997293" lon="11.258836957">
        <ele>2542.1</ele>
        <time>2016-08-26T10:46:19</time>
      </trkpt>
      <trkpt lat="46.692017745" lon="11.258928319">
        <ele>2539.0</ele>
        <time>2016-08-26T10:46:31</time>
      </trkpt>
      <trkpt lat="46.692088069" lon="11.258984311">
        <ele>2535.9</ele>
        <time>2016-08-26T10:46:43</time>
      </trkpt>
      <trkpt lat="46.692072647" lon="11.259080786">
        <ele>2532.9</ele>
        <time>2016-08-26T10:46:56</time>
      </trkpt>
      <trkpt lat="46.692162333" lon="11.259342302">
        <ele>2521.5</ele>
        <time>2016-08-26T10:47:48</time>
      </trkpt>
      <trkpt lat="46.692153364" lon="11.259388151">
        <ele>2519.0</ele>
        <time>2016-08-26T10:48:02</time>
      </trkpt>
      <trkpt lat="46.692223521" lon="11.259588310">
        <ele>2510.6</ele>
        <time>2016-08-26T10:48:38</time>
      </trkpt>
      <trkpt lat="46.692182031" lon="11.259607840">
        <ele>2506.9</ele>
        <time>2016-08-26T10:49:22</time>
      </trkpt>
      <trkpt lat="46.692190077" lon="11.259618821">
        <ele>2506.3</ele>
        <time>2016-08-26T10:49:47</time>
      </trkpt>
      <trkpt lat="46.692219665" lon="11.259673638">
        <ele>2505.0</ele>
        <time>2016-08-26T10:50:30</time>
      </trkpt>
      <trkpt lat="46.692196112" lon="11.259697191">
        <ele>2504.1</ele>
        <time>2016-08-26T10:50:34</time>
      </trkpt>
      <trkpt lat="46.692244979" lon="11.259798361">
        <ele>2501.4</ele>
        <time>2016-08-26T10:50:47</time>
      </trkpt>
      <trkpt lat="46.692205751" lon="11.259867763">
        <ele>2499.1</ele>
        <time>2016-08-26T10:50:57</time>
      </trkpt>
      <trkpt lat="46.692284876" lon="11.259965245">
        <ele>2495.7</ele>
        <time>2016-08-26T10:51:08</time>
      </trkpt>
      <trkpt lat="46.692302981" lon="11.260028444">
        <ele>2492.4</ele>
        <time>2016-08-26T10:51:19</time>
      </trkpt>
      <trkpt lat="46.692295605" lon="11.260118466">
        <ele>2489.3</ele>
        <time>2016-08-26T10:51:32</time>
      </trkpt>
      <trkpt lat="46.692316309" lon="11.260156436">
        <ele>2488.4</ele>
        <time>2016-08-26T10:51:36</time>
      </trkpt>
      <trkpt lat="46.692284876" lon="11.260210248">
        <ele>2485.1</ele>
        <time>2016-08-26T10:51:48</time>
      </trkpt>
      <trkpt lat="46.692343969" lon="11.260380736">
        <ele>2478.9</ele>
        <time>2016-08-26T10:52:14</time>
      </trkpt>
      <trkpt lat="46.692333240" lon="11.260447539">
        <ele>2476.3</ele>
        <time>2016-08-26T10:52:23</time>
      </trkpt>
      <trkpt lat="46.692376323" lon="11.260537477">
        <ele>2473.4</ele>
        <time>2016-08-26T10:52:35</time>
      </trkpt>
      <trkpt lat="46.692233076" lon="11.260564383">
        <ele>2467.2</ele>
        <time>2016-08-26T10:53:04</time>
      </trkpt>
      <trkpt lat="46.692255791" lon="11.260662619">
        <ele>2464.1</ele>
        <time>2016-08-26T10:53:16</time>
      </trkpt>
      <trkpt lat="46.692247661" lon="11.260715090">
        <ele>2462.2</ele>
        <time>2016-08-26T10:53:25</time>
      </trkpt>
      <trkpt lat="46.692288816" lon="11.260833526">
        <ele>2458.8</ele>
        <time>2016-08-26T10:53:37</time>
      </trkpt>
      <trkpt lat="46.692362996" lon="11.260910220">
        <ele>2455.6</ele>
        <time>2016-08-26T10:53:51</time>
      </trkpt>
      <trkpt lat="46.692328211" lon="11.261034273">
        <ele>2452.5</ele>
        <time>2016-08-26T10:54:04</time>
      </trkpt>
      <trkpt lat="46.692326283" lon="11.261159834">
        <ele>2449.0</ele>
        <time>2016-08-26T10:54:16</time>
      </trkpt>
      <trkpt lat="46.692353524" lon="11.261284892">
        <ele>2445.6</ele>
        <time>2016-08-26T10:54:27</time>
      </trkpt>
      <trkpt lat="46.692345226" lon="11.261342810">
        <ele>2443.8</ele>
        <time>2016-08-26T10:54:33</time>
      </trkpt>
      <trkpt lat="46.692393254" lon="11.261454877">
        <ele>2440.9</ele>
        <time>2016-08-26T10:54:43</time>
      </trkpt>
      <trkpt lat="46.692396188" lon="11.261573983">
        <ele>2438.3</ele>
        <time>2016-08-26T10:54:51</time>
      </trkpt>
      <trkpt lat="46.692416305" lon="11.261633914">
        <ele>2437.0</ele>
        <time>2016-08-26T10:54:56</time>
      </trkpt>
      <trkpt lat="46.692401385" lon="11.261697533">
        <ele>2433.8</ele>
        <time>2016-08-26T10:55:16</time>
      </trkpt>
      <trkpt lat="46.692428710" lon="11.261856453">
        <ele>2432.2</ele>
        <time>2016-08-26T10:55:27</time>
      </trkpt>
      <trkpt lat="46.692402475" lon="11.261879839">
        <ele>2430.8</ele>
        <time>2016-08-26T10:55:32</time>
      </trkpt>
      <trkpt lat="46.692379927" lon="11.262011686">
        <ele>2426.9</ele>
        <time>2016-08-26T10:55:44</time>
      </trkpt>
      <trkpt lat="46.692397194" lon="11.262144288">
        <ele>2424.8</ele>
        <time>2016-08-26T10:55:54</time>
      </trkpt>
      <trkpt lat="46.692350926" lon="11.262266999">
        <ele>2422.0</ele>
        <time>2016-08-26T10:56:05</time>
      </trkpt>
      <trkpt lat="46.692349585" lon="11.262414604">
        <ele>2419.1</ele>
        <time>2016-08-26T10:56:18</time>
      </trkpt>
      <trkpt lat="46.692315722" lon="11.262477888">
        <ele>2416.8</ele>
        <time>2016-08-26T10:56:27</time>
      </trkpt>
      <trkpt lat="46.692327624" lon="11.262559276">
        <ele>2414.5</ele>
        <time>2016-08-26T10:56:34</time>
      </trkpt>
      <trkpt lat="46.692300886" lon="11.262855325">
        <ele>2409.1</ele>
        <time>2016-08-26T10:56:55</time>
      </trkpt>
      <trkpt lat="46.692325026" lon="11.263042577">
        <ele>2407.6</ele>
        <time>2016-08-26T10:57:06</time>
      </trkpt>
      <trkpt lat="46.692312956" lon="11.263110805">
        <ele>2407.2</ele>
        <time>2016-08-26T10:57:10</time>
      </trkpt>
      <trkpt lat="46.692315890" lon="11.263357652">
        <ele>2405.2</ele>
        <time>2016-08-26T10:57:26</time>
      </trkpt>
      <trkpt lat="46.692227880" lon="11.263552951">
        <ele>2399.8</ele>
        <time>2016-08-26T10:57:46</time>
      </trkpt>
      <trkpt lat="46.692202566" lon="11.263833828">
        <ele>2396.6</ele>
        <time>2016-08-26T10:58:07</time>
      </trkpt>
      <trkpt lat="46.692137942" lon="11.263970705">
        <ele>2392.9</ele>
        <time>2016-08-26T10:58:21</time>
      </trkpt>
      <trkpt lat="46.692076419" lon="11.264161896">
        <ele>2388.0</ele>
        <time>2016-08-26T10:58:40</time>
      </trkpt>
      <trkpt lat="46.691990672" lon="11.264809398">
        <ele>2382.1</ele>
        <time>2016-08-26T10:59:16</time>
      </trkpt>
      <trkpt lat="46.691912049" lon="11.265171412">
        <ele>2377.2</ele>
        <time>2016-08-26T10:59:43</time>
      </trkpt>
      <trkpt lat="46.691896291" lon="11.265533678">
        <ele>2371.5</ele>
        <time>2016-08-26T11:00:21</time>
      </trkpt>
      <trkpt lat="46.691955719" lon="11.265780190">
        <ele>2368.5</ele>
        <time>2016-08-26T11:00:35</time>
      </trkpt>
      <trkpt lat="46.691920767" lon="11.265828302">
        <ele>2366.8</ele>
        <time>2016-08-26T11:00:43</time>
      </trkpt>
      <trkpt lat="46.691911044" lon="11.265740711">
        <ele>2364.6</ele>
        <time>2016-08-26T11:01:09</time>
      </trkpt>
      <trkpt lat="46.691767462" lon="11.265274007">
        <ele>2363.5</ele>
        <time>2016-08-26T11:01:37</time>
      </trkpt>
      <trkpt lat="46.691700323" lon="11.265165797">
        <ele>2360.5</ele>
        <time>2016-08-26T11:01:48</time>
      </trkpt>
      <trkpt lat="46.691689091" lon="11.264981981">
        <ele>2357.7</ele>
        <time>2016-08-26T11:01:59</time>
      </trkpt>
      <trkpt lat="46.691668471" lon="11.264940826">
        <ele>2357.0</ele>
        <time>2016-08-26T11:02:02</time>
      </trkpt>
      <trkpt lat="46.691633016" lon="11.264725914">
        <ele>2354.4</ele>
        <time>2016-08-26T11:02:14</time>
      </trkpt>
      <trkpt lat="46.691564703" lon="11.264445120">
        <ele>2349.5</ele>
        <time>2016-08-26T11:02:33</time>
      </trkpt>
      <trkpt lat="46.691443417" lon="11.264053937">
        <ele>2340.6</ele>
        <time>2016-08-26T11:03:12</time>
      </trkpt>
      <trkpt lat="46.691322383" lon="11.263747578">
        <ele>2332.9</ele>
        <time>2016-08-26T11:03:44</time>
      </trkpt>
      <trkpt lat="46.691205790" lon="11.263580276">
        <ele>2329.0</ele>
        <time>2016-08-26T11:04:03</time>
      </trkpt>
      <trkpt lat="46.691050306" lon="11.263412638">
        <ele>2322.6</ele>
        <time>2016-08-26T11:04:26</time>
      </trkpt>
      <trkpt lat="46.690849056" lon="11.263242988">
        <ele>2316.6</ele>
        <time>2016-08-26T11:04:52</time>
      </trkpt>
      <trkpt lat="46.690646634" lon="11.263254220">
        <ele>2311.7</ele>
        <time>2016-08-26T11:05:14</time>
      </trkpt>
      <trkpt lat="46.690588212" lon="11.263242988">
        <ele>2309.9</ele>
        <time>2016-08-26T11:05:21</time>
      </trkpt>
      <trkpt lat="46.690569101" lon="11.263211807">
        <ele>2309.3</ele>
        <time>2016-08-26T11:05:24</time>
      </trkpt>
      <trkpt lat="46.690462315" lon="11.263192361">
        <ele>2306.6</ele>
        <time>2016-08-26T11:05:40</time>
      </trkpt>
      <trkpt lat="46.690416131" lon="11.263309121">
        <ele>2302.8</ele>
        <time>2016-08-26T11:05:55</time>
      </trkpt>
      <trkpt lat="46.690297779" lon="11.263350947">
        <ele>2296.9</ele>
        <time>2016-08-26T11:06:15</time>
      </trkpt>
      <trkpt lat="46.690218151" lon="11.263305265">
        <ele>2293.8</ele>
        <time>2016-08-26T11:06:26</time>
      </trkpt>
      <trkpt lat="46.690069456" lon="11.263289424">
        <ele>2287.5</ele>
        <time>2016-08-26T11:06:46</time>
      </trkpt>
      <trkpt lat="46.689858148" lon="11.263311803">
        <ele>2279.0</ele>
        <time>2016-08-26T11:07:16</time>
      </trkpt>
      <trkpt lat="46.689805929" lon="11.263341475">
        <ele>2275.9</ele>
        <time>2016-08-26T11:07:26</time>
      </trkpt>
      <trkpt lat="46.689638291" lon="11.263318593">
        <ele>2269.8</ele>
        <time>2016-08-26T11:07:47</time>
      </trkpt>
      <trkpt lat="46.689416757" lon="11.263386402">
        <ele>2262.8</ele>
        <time>2016-08-26T11:08:11</time>
      </trkpt>
      <trkpt lat="46.689368393" lon="11.263472484">
        <ele>2259.4</ele>
        <time>2016-08-26T11:08:21</time>
      </trkpt>
      <trkpt lat="46.689304188" lon="11.263492098">
        <ele>2256.4</ele>
        <time>2016-08-26T11:08:29</time>
      </trkpt>
      <trkpt lat="46.689264374" lon="11.263567703">
        <ele>2253.5</ele>
        <time>2016-08-26T11:08:39</time>
      </trkpt>
      <trkpt lat="46.689214166" lon="11.263743639">
        <ele>2247.1</ele>
        <time>2016-08-26T11:09:02</time>
      </trkpt>
      <trkpt lat="46.689235121" lon="11.263886048">
        <ele>2243.8</ele>
        <time>2016-08-26T11:09:15</time>
      </trkpt>
      <trkpt lat="46.689212741" lon="11.263894429">
        <ele>2242.9</ele>
        <time>2016-08-26T11:09:18</time>
      </trkpt>
      <trkpt lat="46.689137220" lon="11.264002891">
        <ele>2238.9</ele>
        <time>2016-08-26T11:09:33</time>
      </trkpt>
      <trkpt lat="46.689138394" lon="11.264039688">
        <ele>2237.9</ele>
        <time>2016-08-26T11:09:36</time>
      </trkpt>
      <trkpt lat="46.689107046" lon="11.264125183">
        <ele>2235.4</ele>
        <time>2016-08-26T11:09:45</time>
      </trkpt>
      <trkpt lat="46.689122720" lon="11.264267927">
        <ele>2231.6</ele>
        <time>2016-08-26T11:09:58</time>
      </trkpt>
      <trkpt lat="46.689073937" lon="11.264265329">
        <ele>2229.1</ele>
        <time>2016-08-26T11:10:07</time>
      </trkpt>
      <trkpt lat="46.689028423" lon="11.264355518">
        <ele>2225.7</ele>
        <time>2016-08-26T11:10:19</time>
      </trkpt>
      <trkpt lat="46.688805800" lon="11.264317380">
        <ele>2217.2</ele>
        <time>2016-08-26T11:10:48</time>
      </trkpt>
      <trkpt lat="46.688734638" lon="11.264361385">
        <ele>2214.8</ele>
        <time>2016-08-26T11:10:57</time>
      </trkpt>
      <trkpt lat="46.688651908" lon="11.264449060">
        <ele>2211.4</ele>
        <time>2016-08-26T11:11:08</time>
      </trkpt>
      <trkpt lat="46.688634558" lon="11.264520139">
        <ele>2208.2</ele>
        <time>2016-08-26T11:11:17</time>
      </trkpt>
      <trkpt lat="46.688587787" lon="11.264581745">
        <ele>2204.6</ele>
        <time>2016-08-26T11:11:28</time>
      </trkpt>
      <trkpt lat="46.688506985" lon="11.264551990">
        <ele>2201.4</ele>
        <time>2016-08-26T11:11:40</time>
      </trkpt>
      <trkpt lat="46.688377233" lon="11.264680149">
        <ele>2195.0</ele>
        <time>2016-08-26T11:12:02</time>
      </trkpt>
      <trkpt lat="46.688348399" lon="11.264668247">
        <ele>2193.5</ele>
        <time>2016-08-26T11:12:07</time>
      </trkpt>
      <trkpt lat="46.688148743" lon="11.264758771">
        <ele>2183.6</ele>
        <time>2016-08-26T11:12:43</time>
      </trkpt>
      <trkpt lat="46.687981524" lon="11.264880393">
        <ele>2177.1</ele>
        <time>2016-08-26T11:13:05</time>
      </trkpt>
      <trkpt lat="46.687808018" lon="11.264960105">
        <ele>2171.9</ele>
        <time>2016-08-26T11:13:24</time>
      </trkpt>
      <trkpt lat="46.687683882" lon="11.264978880">
        <ele>2169.5</ele>
        <time>2016-08-26T11:13:37</time>
      </trkpt>
      <trkpt lat="46.687406190" lon="11.265122546">
        <ele>2159.6</ele>
        <time>2016-08-26T11:14:12</time>
      </trkpt>
      <trkpt lat="46.687200917" lon="11.265151044">
        <ele>2155.0</ele>
        <time>2016-08-26T11:14:32</time>
      </trkpt>
      <trkpt lat="46.687132604" lon="11.265183063">
        <ele>2152.6</ele>
        <time>2016-08-26T11:14:40</time>
      </trkpt>
      <trkpt lat="46.686974438" lon="11.265394790">
        <ele>2142.8</ele>
        <time>2016-08-26T11:15:18</time>
      </trkpt>
      <trkpt lat="46.686939821" lon="11.265410883">
        <ele>2142.1</ele>
        <time>2016-08-26T11:15:22</time>
      </trkpt>
      <trkpt lat="46.686915345" lon="11.265515490">
        <ele>2138.8</ele>
        <time>2016-08-26T11:15:32</time>
      </trkpt>
      <trkpt lat="46.686886344" lon="11.265548430">
        <ele>2137.2</ele>
        <time>2016-08-26T11:15:37</time>
      </trkpt>
      <trkpt lat="46.686927583" lon="11.265717074">
        <ele>2132.7</ele>
        <time>2016-08-26T11:15:53</time>
      </trkpt>
      <trkpt lat="46.686887434" lon="11.265760493">
        <ele>2129.5</ele>
        <time>2016-08-26T11:16:02</time>
      </trkpt>
      <trkpt lat="46.686727507" lon="11.265799133">
        <ele>2123.2</ele>
        <time>2016-08-26T11:16:22</time>
      </trkpt>
      <trkpt lat="46.686669085" lon="11.265858645">
        <ele>2120.2</ele>
        <time>2016-08-26T11:16:35</time>
      </trkpt>
      <trkpt lat="46.686583925" lon="11.265885634">
        <ele>2116.9</ele>
        <time>2016-08-26T11:16:49</time>
      </trkpt>
      <trkpt lat="46.686242195" lon="11.265889406">
        <ele>2105.5</ele>
        <time>2016-08-26T11:17:30</time>
      </trkpt>
      <trkpt lat="46.686108587" lon="11.265943302">
        <ele>2102.2</ele>
        <time>2016-08-26T11:17:43</time>
      </trkpt>
      <trkpt lat="46.686086543" lon="11.265984206">
        <ele>2101.4</ele>
        <time>2016-08-26T11:17:46</time>
      </trkpt>
      <trkpt lat="46.686012028" lon="11.266049249">
        <ele>2098.6</ele>
        <time>2016-08-26T11:17:56</time>
      </trkpt>
      <trkpt lat="46.685775239" lon="11.266104067">
        <ele>2090.5</ele>
        <time>2016-08-26T11:18:50</time>
      </trkpt>
      <trkpt lat="46.685729558" lon="11.266156537">
        <ele>2089.1</ele>
        <time>2016-08-26T11:18:56</time>
      </trkpt>
      <trkpt lat="46.685606930" lon="11.266211774">
        <ele>2085.7</ele>
        <time>2016-08-26T11:19:11</time>
      </trkpt>
      <trkpt lat="46.685476759" lon="11.266166763">
        <ele>2081.2</ele>
        <time>2016-08-26T11:19:29</time>
      </trkpt>
      <trkpt lat="46.685380703" lon="11.266157962">
        <ele>2078.1</ele>
        <time>2016-08-26T11:19:41</time>
      </trkpt>
      <trkpt lat="46.685282718" lon="11.266219402">
        <ele>2074.5</ele>
        <time>2016-08-26T11:19:56</time>
      </trkpt>
      <trkpt lat="46.685106363" lon="11.266215714">
        <ele>2069.2</ele>
        <time>2016-08-26T11:20:15</time>
      </trkpt>
      <trkpt lat="46.685003517" lon="11.266127536">
        <ele>2066.1</ele>
        <time>2016-08-26T11:20:25</time>
      </trkpt>
      <trkpt lat="46.684846189" lon="11.266116053">
        <ele>2061.6</ele>
        <time>2016-08-26T11:20:43</time>
      </trkpt>
      <trkpt lat="46.684789276" lon="11.266140360">
        <ele>2059.8</ele>
        <time>2016-08-26T11:20:50</time>
      </trkpt>
      <trkpt lat="46.684732614" lon="11.266230214">
        <ele>2056.9</ele>
        <time>2016-08-26T11:21:00</time>
      </trkpt>
      <trkpt lat="46.684688609" lon="11.266242201">
        <ele>2054.9</ele>
        <time>2016-08-26T11:21:05</time>
      </trkpt>
      <trkpt lat="46.684570843" lon="11.266379748">
        <ele>2048.8</ele>
        <time>2016-08-26T11:21:24</time>
      </trkpt>
      <trkpt lat="46.684593977" lon="11.266545122">
        <ele>2045.1</ele>
        <time>2016-08-26T11:21:38</time>
      </trkpt>
      <trkpt lat="46.684153257" lon="11.266205823">
        <ele>2039.7</ele>
        <time>2016-08-26T11:22:20</time>
      </trkpt>
      <trkpt lat="46.684060302" lon="11.266161902">
        <ele>2038.8</ele>
        <time>2016-08-26T11:22:28</time>
      </trkpt>
      <trkpt lat="46.683657803" lon="11.266059224">
        <ele>2036.0</ele>
        <time>2016-08-26T11:23:00</time>
      </trkpt>
      <trkpt lat="46.683350354" lon="11.265879180">
        <ele>2033.0</ele>
        <time>2016-08-26T11:23:26</time>
      </trkpt>
      <trkpt lat="46.682737134" lon="11.265610959">
        <ele>2028.6</ele>
        <time>2016-08-26T11:24:16</time>
      </trkpt>
      <trkpt lat="46.682570418" lon="11.265497552">
        <ele>2027.0</ele>
        <time>2016-08-26T11:24:30</time>
      </trkpt>
      <trkpt lat="46.682119220" lon="11.265289010">
        <ele>2022.3</ele>
        <time>2016-08-26T11:25:07</time>
      </trkpt>
      <trkpt lat="46.681849156" lon="11.265122797">
        <ele>2019.9</ele>
        <time>2016-08-26T11:25:30</time>
      </trkpt>
      <trkpt lat="46.681731725" lon="11.265005954">
        <ele>2018.6</ele>
        <time>2016-08-26T11:25:42</time>
      </trkpt>
      <trkpt lat="46.681501307" lon="11.264725495">
        <ele>2015.0</ele>
        <time>2016-08-26T11:26:07</time>
      </trkpt>
      <trkpt lat="46.681259153" lon="11.264393153">
        <ele>2012.8</ele>
        <time>2016-08-26T11:26:33</time>
      </trkpt>
      <trkpt lat="46.681063436" lon="11.264019823">
        <ele>2009.8</ele>
        <time>2016-08-26T11:26:58</time>
      </trkpt>
      <trkpt lat="46.680938881" lon="11.263816813">
        <ele>2008.2</ele>
        <time>2016-08-26T11:27:13</time>
      </trkpt>
      <trkpt lat="46.680670911" lon="11.263443986">
        <ele>2005.0</ele>
        <time>2016-08-26T11:27:43</time>
      </trkpt>
      <trkpt lat="46.680365391" lon="11.262906790">
        <ele>1999.4</ele>
        <time>2016-08-26T11:28:25</time>
      </trkpt>
      <trkpt lat="46.680249805" lon="11.262731859">
        <ele>1997.7</ele>
        <time>2016-08-26T11:28:38</time>
      </trkpt>
      <trkpt lat="46.680127680" lon="11.262498256">
        <ele>1995.0</ele>
        <time>2016-08-26T11:28:56</time>
      </trkpt>
      <trkpt lat="46.679963144" lon="11.262112940">
        <ele>1992.3</ele>
        <time>2016-08-26T11:29:22</time>
      </trkpt>
      <trkpt lat="46.679862645" lon="11.261768192">
        <ele>1990.3</ele>
        <time>2016-08-26T11:29:43</time>
      </trkpt>
      <trkpt lat="46.679853508" lon="11.261691833">
        <ele>1990.0</ele>
        <time>2016-08-26T11:29:47</time>
      </trkpt>
      <trkpt lat="46.679892149" lon="11.261381200">
        <ele>1988.4</ele>
        <time>2016-08-26T11:30:05</time>
      </trkpt>
      <trkpt lat="46.680159196" lon="11.260911897">
        <ele>1982.7</ele>
        <time>2016-08-26T11:30:43</time>
      </trkpt>
      <trkpt lat="46.680286266" lon="11.260740235">
        <ele>1980.0</ele>
        <time>2016-08-26T11:30:59</time>
      </trkpt>
      <trkpt lat="46.680549039" lon="11.260439577">
        <ele>1975.4</ele>
        <time>2016-08-26T11:31:42</time>
      </trkpt>
      <trkpt lat="46.680939551" lon="11.260314099">
        <ele>1966.8</ele>
        <time>2016-08-26T11:32:24</time>
      </trkpt>
      <trkpt lat="46.681051366" lon="11.260145037">
        <ele>1963.7</ele>
        <time>2016-08-26T11:32:38</time>
      </trkpt>
      <trkpt lat="46.681053042" lon="11.260066079">
        <ele>1963.0</ele>
        <time>2016-08-26T11:32:42</time>
      </trkpt>
      <trkpt lat="46.681010043" lon="11.259846725">
        <ele>1960.9</ele>
        <time>2016-08-26T11:32:57</time>
      </trkpt>
      <trkpt lat="46.680818433" lon="11.259146249">
        <ele>1947.8</ele>
        <time>2016-08-26T11:33:57</time>
      </trkpt>
      <trkpt lat="46.680744337" lon="11.258928739">
        <ele>1944.8</ele>
        <time>2016-08-26T11:34:12</time>
      </trkpt>
      <trkpt lat="46.680492293" lon="11.258413168">
        <ele>1938.0</ele>
        <time>2016-08-26T11:34:54</time>
      </trkpt>
      <trkpt lat="46.680316776" lon="11.258115526">
        <ele>1934.2</ele>
        <time>2016-08-26T11:35:16</time>
      </trkpt>
      <trkpt lat="46.680192975" lon="11.257945541">
        <ele>1932.8</ele>
        <time>2016-08-26T11:35:30</time>
      </trkpt>
      <trkpt lat="46.679985523" lon="11.257724930">
        <ele>1931.0</ele>
        <time>2016-08-26T11:35:50</time>
      </trkpt>
      <trkpt lat="46.679925844" lon="11.257636752">
        <ele>1930.5</ele>
        <time>2016-08-26T11:35:57</time>
      </trkpt>
      <trkpt lat="46.679423768" lon="11.257354366">
        <ele>1929.2</ele>
        <time>2016-08-26T11:36:35</time>
      </trkpt>
      <trkpt lat="46.679087402" lon="11.257136604">
        <ele>1928.6</ele>
        <time>2016-08-26T11:37:03</time>
      </trkpt>
      <trkpt lat="46.678930493" lon="11.256995788">
        <ele>1928.3</ele>
        <time>2016-08-26T11:37:17</time>
      </trkpt>
      <trkpt lat="46.678787498" lon="11.256811051">
        <ele>1927.7</ele>
        <time>2016-08-26T11:37:33</time>
      </trkpt>
      <trkpt lat="46.678593708" lon="11.256675180">
        <ele>1927.1</ele>
        <time>2016-08-26T11:37:48</time>
      </trkpt>
      <trkpt lat="46.678467058" lon="11.256633354">
        <ele>1927.0</ele>
        <time>2016-08-26T11:37:55</time>
      </trkpt>
      <trkpt lat="46.678312076" lon="11.256536376">
        <ele>1927.2</ele>
        <time>2016-08-26T11:38:06</time>
      </trkpt>
      <trkpt lat="46.677931957" lon="11.256131195">
        <ele>1925.4</ele>
        <time>2016-08-26T11:38:44</time>
      </trkpt>
      <trkpt lat="46.677370286" lon="11.255722493">
        <ele>1924.7</ele>
        <time>2016-08-26T11:39:29</time>
      </trkpt>
      <trkpt lat="46.677273056" lon="11.255627191">
        <ele>1924.4</ele>
        <time>2016-08-26T11:39:39</time>
      </trkpt>
      <trkpt lat="46.677227542" lon="11.255662981">
        <ele>1923.8</ele>
        <time>2016-08-26T11:39:52</time>
      </trkpt>
      <trkpt lat="46.677193260" lon="11.255601794">
        <ele>1923.5</ele>
        <time>2016-08-26T11:40:06</time>
      </trkpt>
      <trkpt lat="46.677104244" lon="11.255224776">
        <ele>1923.2</ele>
        <time>2016-08-26T11:40:50</time>
      </trkpt>
      <trkpt lat="46.676995363" lon="11.255192757">
        <ele>1923.2</ele>
        <time>2016-08-26T11:41:06</time>
      </trkpt>
      <trkpt lat="46.677059485" lon="11.254837867">
        <ele>1915.7</ele>
        <time>2016-08-26T12:25:15</time>
      </trkpt>
      <trkpt lat="46.677097119" lon="11.254715910">
        <ele>1915.6</ele>
        <time>2016-08-26T12:25:21</time>
      </trkpt>
      <trkpt lat="46.677228967" lon="11.254414497">
        <ele>1916.1</ele>
        <time>2016-08-26T12:25:38</time>
      </trkpt>
      <trkpt lat="46.677413620" lon="11.254221713">
        <ele>1916.3</ele>
        <time>2016-08-26T12:25:57</time>
      </trkpt>
      <trkpt lat="46.677549072" lon="11.254136637">
        <ele>1917.3</ele>
        <time>2016-08-26T12:26:11</time>
      </trkpt>
      <trkpt lat="46.677967999" lon="11.253968328">
        <ele>1918.5</ele>
        <time>2016-08-26T12:27:09</time>
      </trkpt>
      <trkpt lat="46.678000605" lon="11.253855424">
        <ele>1918.2</ele>
        <time>2016-08-26T12:27:19</time>
      </trkpt>
      <trkpt lat="46.677960707" lon="11.253843941">
        <ele>1918.1</ele>
        <time>2016-08-26T12:27:23</time>
      </trkpt>
      <trkpt lat="46.677912595" lon="11.253660712">
        <ele>1917.7</ele>
        <time>2016-08-26T12:28:16</time>
      </trkpt>
      <trkpt lat="46.677888203" lon="11.253636153">
        <ele>1917.6</ele>
        <time>2016-08-26T12:28:31</time>
      </trkpt>
      <trkpt lat="46.677815448" lon="11.253704634">
        <ele>1917.2</ele>
        <time>2016-08-26T12:28:55</time>
      </trkpt>
      <trkpt lat="46.677770689" lon="11.253630370">
        <ele>1917.1</ele>
        <time>2016-08-26T12:29:03</time>
      </trkpt>
    </trkseg>
  </trk>
</gpx>
